Latest Weather Observations for Geraldton Airport

IDW60801

Issued at 4:33 pm WST Tuesday 22 October 2019 (issued every 10 minutes, with the page automatically refreshed every 10 minutes)

About weather observations | Map of weather stations | Latest weather observations for WA | Other Formats
Station Details ID: 008315 Name: GERALDTON AIRPORT Lat: -28.80 Lon: 114.70 Height: 29.7 m
Data from the previous 72 hours. | See also: Recent months at Geraldton Airport
Date/Time
WST
Temp
°C
App
Temp
°C
Dew
Point
°C
Rel
Hum
%
Delta-T
°C
Wind Press
QNH
hPa
Press
MSL
hPa
Rain since
9am
mm
Dir  Spd
km/h
Gust
km/h
Spd
kts
Gust
kts
22/04:30pm 22.6 19.1 15.4 64 4.3 SSW 28 37 15 20 1016.4 1016.4 0.0
22/04:00pm 22.7 19.1 15.3 63 4.4 S 28 37 15 20 1016.3 1016.3 0.0
22/03:30pm 23.5 20.1 15.8 62 4.7 SSW 28 35 15 19 1016.4 1016.4 0.0
22/03:00pm 23.4 19.7 14.9 59 5.1 S 28 33 15 18 1016.4 1016.4 0.0
22/02:30pm 23.8 20.5 15.0 57 5.3 S 26 33 14 18 1016.6 1016.6 0.0
22/02:00pm 23.7 20.6 15.5 60 4.9 SSW 26 33 14 18 1016.9 1016.9 0.0
22/01:30pm 23.5 20.1 14.8 58 5.2 SSW 26 41 14 22 1017.4 1017.4 0.0
22/01:00pm 23.7 19.7 15.2 59 5.1 SSW 30 37 16 20 1017.6 1017.6 0.0
22/12:30pm 23.2 19.5 15.0 60 4.9 SSW 28 35 15 19 1017.8 1017.8 0.0
22/12:00pm 23.2 19.3 14.5 58 5.1 SSW 28 35 15 19 1018.0 1018.0 0.0
22/11:30am 23.1 19.8 14.1 57 5.3 SSW 24 32 13 17 1018.2 1018.2 0.0
22/11:00am 23.1 20.2 14.1 57 5.3 SSW 22 32 12 17 1018.5 1018.5 0.0
22/10:30am 23.2 20.1 13.4 54 5.7 SSW 22 30 12 16 1018.8 1018.8 0.0
22/10:00am 22.5 19.6 13.0 55 5.4 S 20 30 11 16 1019.2 1019.2 0.0
22/09:30am 21.9 19.0 13.0 57 5.1 SSE 20 30 11 16 1019.4 1019.4 0.0
22/09:00am 21.1 17.8 12.8 59 4.7 S 22 30 12 16 1019.5 1019.5 0.0
22/08:30am 20.2 16.6 12.9 63 4.1 SSE 24 32 13 17 1019.4 1019.4 0.0
22/08:00am 18.9 15.9 13.7 72 3.0 SSE 22 28 12 15 1019.6 1019.6 0.0
22/07:30am 16.8 14.9 14.1 84 1.5 SE 17 22 9 12 1019.6 1019.6 0.0
22/06:30am 13.7 12.1 12.8 94 0.5 SE 13 17 7 9 1019.5 1019.5 0.0
22/06:00am 12.2 10.5 11.3 94 0.5 SE 11 13 6 7 1019.3 1019.3 0.0
22/05:30am 10.5 8.7 9.3 92 0.6 ESE 9 11 5 6 1019.2 1019.2 0.0
22/05:00am 11.4 9.8 10.3 93 0.6 SE 9 11 5 6 1019.1 1019.1 0.0
22/04:30am 11.9 10.0 10.6 92 0.7 SSE 11 13 6 7 1019.0 1019.0 0.0
22/04:00am 12.1 10.6 10.7 91 0.7 SSE 9 11 5 6 1019.0 1019.0 0.0
22/03:30am 12.0 10.5 10.6 91 0.7 SSE 9 11 5 6 1019.2 1019.2 0.0
22/03:00am 12.5 10.7 10.9 90 0.8 SSE 11 11 6 6 1019.1 1019.1 0.0
22/02:30am 13.2 11.9 11.3 88 1.0 SE 9 11 5 6 1019.0 1019.0 0.0
22/02:00am 14.0 12.5 11.9 87 1.1 SE 11 13 6 7 1018.8 1018.8 0.0
22/01:30am 14.9 13.2 12.4 85 1.4 SE 13 19 7 10 1019.0 1019.0 0.0
22/01:00am 15.5 13.8 12.4 82 1.7 SE 13 17 7 9 1019.1 1019.1 0.0
22/12:30am 16.7 13.8 12.8 78 2.2 SE 20 26 11 14 1019.1 1019.1 0.0
22/12:00am 17.6 15.0 13.3 76 2.4 SE 19 24 10 13 1019.2 1019.2 0.0
 
Date/Time
WST
Temp
°C
App
Temp
°C
Dew
Point
°C
Rel
Hum
%
Delta-T
°C
Wind Press
QNH
hPa
Press
MSL
hPa
Rain since
9am
mm
Dir  Spd
km/h
Gust
km/h
Spd
kts
Gust
kts
21/11:30pm 17.7 15.5 13.4 76 2.4 SE 17 22 9 12 1019.4 1019.4 0.0
21/11:00pm 17.9 15.7 13.4 75 2.5 SE 17 24 9 13 1019.5 1019.5 0.0
21/10:30pm 18.8 15.6 14.3 75 2.6 SSE 24 35 13 19 1019.6 1019.6 0.0
21/10:00pm 18.6 15.3 14.1 75 2.6 S 24 33 13 18 1019.7 1019.7 0.0
21/09:30pm 18.3 15.7 13.8 75 2.6 S 20 28 11 15 1019.9 1019.9 0.0
21/09:00pm 18.0 15.6 13.7 76 2.4 S 19 24 10 13 1020.0 1020.0 0.0
21/08:30pm 18.1 15.1 13.8 76 2.5 S 22 28 12 15 1019.8 1019.8 0.0
21/08:00pm 18.4 15.5 13.9 75 2.6 S 22 32 12 17 1019.8 1019.8 0.0
21/07:30pm 18.6 16.0 13.9 74 2.7 S 20 30 11 16 1019.6 1019.6 0.0
21/07:00pm 18.8 15.5 13.9 73 2.8 S 24 30 13 16 1019.4 1019.4 0.0
21/06:30pm 19.2 15.9 14.0 72 3.0 S 24 30 13 16 1019.2 1019.2 0.0
21/06:00pm 19.4 15.7 13.8 70 3.2 S 26 35 14 19 1018.9 1018.9 0.0
21/05:30pm 20.2 16.1 13.9 67 3.6 SSW 28 33 15 18 1018.7 1018.7 0.0
21/05:00pm 20.8 16.7 13.7 64 4.1 SSW 28 35 15 19 1018.6 1018.6 0.0
21/04:30pm 21.2 16.6 13.4 61 4.5 SW 30 37 16 20 1018.7 1018.7 0.0
21/04:00pm 21.6 16.8 13.0 58 4.9 SSW 30 39 16 21 1018.5 1018.5 0.0
21/03:30pm 22.3 17.2 12.0 52 5.8 SSW 30 39 16 21 1018.2 1018.2 0.0
21/03:00pm 22.1 17.4 12.1 53 5.6 SSW 28 37 15 20 1018.1 1018.1 0.0
21/02:30pm 22.5 18.7 12.4 52 5.7 SSW 24 33 13 18 1018.4 1018.4 0.0
21/02:00pm 23.2 18.9 11.9 49 6.4 SW 26 39 14 21 1018.6 1018.6 0.0
21/01:30pm 23.4 18.7 12.1 49 6.4 SSW 28 35 15 19 1018.6 1018.6 0.0
21/01:00pm 23.2 19.5 11.6 48 6.5 SW 22 32 12 17 1018.6 1018.6 0.0
21/12:30pm 23.4 19.4 11.8 48 6.6 SW 24 33 13 18 1018.8 1018.8 0.0
21/12:00pm 24.0 20.8 12.0 47 6.8 SSW 20 30 11 16 1018.8 1018.8 0.0
21/11:30am 24.2 20.4 12.5 48 6.7 SSW 24 35 13 19 1018.8 1018.8 0.0
21/11:00am 23.3 21.5 12.0 49 6.4 SSE 13 30 7 16 1019.3 1019.3 0.0
21/10:30am 23.2 22.3 12.5 51 6.1 SSE 9 20 5 11 1019.6 1019.6 0.0
21/10:00am 22.2 20.5 11.3 50 6.0 S 11 19 6 10 1020.0 1020.0 0.0
21/09:30am 21.7 20.1 11.7 53 5.6 SE 11 24 6 13 1020.2 1020.2 0.0
21/09:00am 20.7 20.0 11.9 57 4.9 SW 7 20 4 11 1020.2 1020.2 0.0
21/08:30am 20.1 18.5 11.6 58 4.7 SE 11 19 6 10 1019.9 1019.9 0.0
21/08:00am 19.7 19.8 12.7 64 3.9 ENE 4 7 2 4 1019.5 1019.5 0.0
21/07:30am 18.2 17.6 12.4 69 3.2 NNE 7 11 4 6 1019.6 1019.6 0.0
21/07:00am 16.7 15.3 12.3 75 2.4 NNE 11 15 6 8 1019.5 1019.5 0.0
21/06:30am 15.6 13.8 12.0 79 2.0 NNE 13 15 7 8 1019.3 1019.3 0.0
21/06:00am 15.3 14.2 12.1 81 1.7 NNE 9 11 5 6 1019.0 1019.0 0.0
21/05:30am 14.8 14.1 11.9 83 1.6 NE 7 11 4 6 1018.7 1018.7 0.0
21/05:00am 14.9 13.8 12.0 83 1.6 NE 9 13 5 7 1018.5 1018.5 0.0
21/04:30am 14.7 14.0 12.0 84 1.5 NE 7 9 4 5 1018.2 1018.2 0.0
21/04:00am 14.5 13.7 11.8 84 1.5 NNE 7 9 4 5 1018.2 1018.2 0.0
21/03:30am 14.5 13.4 12.0 85 1.4 N 9 13 5 7 1018.2 1018.2 0.0
21/03:00am 14.2 11.9 11.9 86 1.2 NNE 15 17 8 9 1018.1 1018.1 0.0
21/02:30am 14.3 12.7 11.6 84 1.4 NNE 11 15 6 8 1018.0 1018.0 0.0
21/02:00am 15.0 13.6 12.1 83 1.6 NNE 11 13 6 7 1018.2 1018.2 0.0
21/01:30am 15.2 14.2 12.3 83 1.6 NNE 9 11 5 6 1018.3 1018.3 0.0
21/01:00am 15.0 13.6 12.3 84 1.5 NNE 11 13 6 7 1018.4 1018.4 0.0
21/12:30am 15.1 14.5 12.4 84 1.5 NE 7 9 4 5 1018.5 1018.5 0.0
21/12:00am 14.1 13.0 11.8 86 1.2 NNE 9 11 5 6 1018.5 1018.5 0.0
 
Date/Time
WST
Temp
°C
App
Temp
°C
Dew
Point
°C
Rel
Hum
%
Delta-T
°C
Wind Press
QNH
hPa
Press
MSL
hPa
Rain since
9am
mm
Dir  Spd
km/h
Gust
km/h
Spd
kts
Gust
kts
20/11:30pm 13.6 12.6 11.0 84 1.4 ENE 7 11 4 6 1018.6 1018.6 0.0
20/11:00pm 13.9 13.3 10.5 80 1.8 ESE 4 11 2 6 1018.7 1018.7 0.0
20/10:30pm 15.9 15.4 12.5 80 1.9 S 7 11 4 6 1018.6 1018.6 0.0
20/10:00pm 15.8 15.5 12.7 82 1.7 S 6 7 3 4 1018.7 1018.7 0.0
20/09:30pm 15.4 14.0 12.3 82 1.7 SSW 11 13 6 7 1018.9 1018.9 0.0
20/09:00pm 16.1 15.2 12.5 79 2.0 SSW 9 11 5 6 1018.9 1018.9 0.0
20/08:30pm 16.4 15.2 12.9 80 1.9 SSW 11 13 6 7 1018.9 1018.9 0.0
20/08:00pm 17.3 16.2 13.2 77 2.3 SSW 11 13 6 7 1018.9 1018.9 0.0
20/07:30pm 17.5 16.7 13.0 75 2.5 SSW 9 11 5 6 1018.7 1018.7 0.0
20/07:00pm 18.2 17.1 13.1 72 2.9 SW 11 13 6 7 1018.4 1018.4 0.0
20/06:30pm 19.2 17.0 13.4 69 3.3 SW 17 19 9 10 1018.1 1018.1 0.0
20/06:00pm 20.4 18.5 14.1 67 3.6 SW 17 24 9 13 1017.8 1017.8 0.0
20/05:30pm 21.1 18.5 13.3 61 4.5 WSW 19 24 10 13 1017.8 1017.8 0.0
20/05:00pm 21.9 19.9 13.8 60 4.7 WSW 17 26 9 14 1017.6 1017.6 0.0
20/04:30pm 22.0 19.7 14.1 61 4.6 SW 19 26 10 14 1017.6 1017.6 0.0
20/04:00pm 22.2 19.6 13.8 59 4.9 WSW 20 28 11 15 1017.6 1017.6 0.0
20/03:30pm 22.8 19.7 13.3 55 5.5 W 22 30 12 16 1017.6 1017.6 0.0
20/03:00pm 23.2 19.3 12.2 50 6.2 W 24 37 13 20 1017.5 1017.5 0.0
20/02:30pm 23.3 19.7 11.7 48 6.5 WSW 22 32 12 17 1017.5 1017.5 0.0
20/02:00pm 23.1 20.0 12.1 50 6.2 W 20 35 11 19 1017.7 1017.7 0.0
20/01:30pm 23.1 20.1 12.4 51 6.1 WSW 20 32 11 17 1017.5 1017.5 0.0
20/01:00pm 23.6 20.1 13.5 53 5.9 W 24 37 13 20 1017.5 1017.5 0.0
20/12:30pm 23.7 19.7 13.0 51 6.2 W 26 35 14 19 1017.4 1017.4 0.0
20/12:00pm 23.0 19.2 12.3 51 6.1 WNW 24 35 13 19 1017.6 1017.6 0.0
20/11:30am 22.9 19.1 12.5 52 5.9 NW 24 41 13 22 1017.7 1017.7 0.0
20/11:00am 23.3 19.7 13.2 53 5.8 WNW 24 33 13 18 1017.7 1017.7 0.0
20/10:30am 23.1 19.9 13.0 53 5.8 W 22 30 12 16 1017.8 1017.8 0.0
20/10:00am 22.2 19.3 13.0 56 5.3 NW 20 32 11 17 1017.7 1017.7 0.0
20/09:30am 22.1 19.4 13.5 58 5.0 WNW 20 32 11 17 1017.6 1017.6 0.0
20/09:00am 21.7 18.8 14.1 62 4.4 WNW 22 33 12 18 1017.3 1017.3 0.0
20/08:30am 21.2 18.2 14.8 67 3.8 NW 24 30 13 16 1016.9 1016.9 0.0
20/08:00am 21.1 18.7 14.5 66 3.9 WNW 20 28 11 15 1017.0 1017.0 0.0
20/07:30am 20.8 18.8 15.6 72 3.1 NW 20 30 11 16 1016.9 1016.9 0.0
20/07:00am 18.2 17.9 16.4 89 1.1 N 13 19 7 10 1016.8 1016.8 0.0
20/06:30am 16.0 15.8 14.7 92 0.7 N 9 11 5 6 1016.5 1016.5 0.0
20/06:00am 15.0 14.0 13.5 91 0.8 N 11 11 6 6 1016.1 1016.1 0.0
20/05:30am 15.3 14.5 14.0 92 0.7 NNE 11 13 6 7 1015.8 1015.8 0.0
20/05:00am 15.0 14.4 13.5 91 0.8 N 9 11 5 6 1015.4 1015.4 0.0
20/04:30am 14.9 14.2 13.3 90 0.9 N 9 11 5 6 1015.2 1015.2 0.0
20/04:00am 15.7 14.5 14.1 90 0.9 N 13 15 7 8 1015.0 1015.0 0.0
20/03:30am 15.9 15.1 13.9 88 1.1 N 11 15 6 8 1015.0 1015.0 0.0
20/03:00am 17.5 17.3 15.8 90 1.0 N 11 19 6 10 1014.8 1014.8 0.0
20/02:30am 16.8 16.9 15.5 92 0.8 N 9 13 5 7 1014.8 1014.8 0.0
20/02:03am 16.8 16.2 15.7 93 0.6 N 13 15 7 8 1014.8 1014.8 0.0
20/02:00am 16.7 16.1 15.6 93 0.6 N 13 15 7 8 1014.8 1014.8 0.0
20/01:45am 16.8 16.1 15.5 92 0.8 N 13 15 7 8 1014.9 1014.9 0.0
20/01:30am 17.3 16.5 16.2 93 0.7 N 15 15 8 8 1015.0 1015.0 0.0
20/01:00am 17.4 17.0 16.1 92 0.8 N 13 17 7 9 1015.2 1015.2 0.0
20/12:50am 17.5 16.7 16.2 92 0.8 N 15 17 8 9 1015.3 1015.3 0.0
20/12:30am 17.7 17.4 16.4 92 0.8 N 13 15 7 8 1015.5 1015.5 0.0
20/12:00am 17.4 17.4 16.3 93 0.7 NNW 11 15 6 8 1015.6 1015.6 0.0
 
Date/Time
WST
Temp
°C
App
Temp
°C
Dew
Point
°C
Rel
Hum
%
Delta-T
°C
Wind Press
QNH
hPa
Press
MSL
hPa
Rain since
9am
mm
Dir  Spd
km/h
Gust
km/h
Spd
kts
Gust
kts
19/11:30pm 18.0 18.2 16.7 92 0.8 N 11 15 6 8 1015.6 1015.6 0.0
19/11:00pm 18.3 18.5 16.8 91 0.9 N 11 15 6 8 1015.6 1015.6 0.0
19/10:30pm 18.7 18.6 17.0 90 1.0 NNW 13 17 7 9 1015.8 1015.8 0.0
19/10:00pm 18.8 18.7 16.9 89 1.1 NNW 13 15 7 8 1016.0 1016.0 0.0
19/09:30pm 19.3 19.4 17.4 89 1.2 NNW 13 19 7 10 1016.2 1016.2 0.0
19/09:06pm 19.3 19.0 17.4 89 1.2 NNW 15 20 8 11 1016.3 1016.3 0.0
19/09:00pm 19.4 19.1 17.4 88 1.2 NNW 15 20 8 11 1016.2 1016.2 0.0
19/08:30pm 19.4 18.7 17.4 88 1.2 NNW 17 24 9 13 1016.0 1016.0 0.0
19/08:00pm 19.3 18.5 17.1 87 1.3 NNW 17 22 9 12 1015.9 1015.9 0.0
19/07:30pm 19.2 18.8 17.2 88 1.2 NNW 15 20 8 11 1015.4 1015.4 0.0
19/07:18pm 19.3 19.4 17.4 89 1.2 NNW 13 17 7 9 1015.3 1015.3 0.0
19/07:04pm 19.4 18.7 17.4 88 1.2 NNW 17 22 9 12 1015.3 1015.3 0.0
19/07:00pm 19.5 18.9 17.5 88 1.2 NNW 17 22 9 12 1015.3 1015.3 0.0
19/06:30pm 19.8 19.1 17.4 86 1.5 NNW 17 22 9 12 1015.0 1015.0 0.0
19/06:00pm 20.2 18.9 17.2 83 1.8 NW 20 24 11 13 1014.6 1014.6 0.0
19/05:30pm 20.8 19.1 17.2 80 2.2 NW 22 30 12 16 1014.4 1014.4 0.0
19/05:00pm 21.2 17.6 17.2 78 2.5 NW 32 39 17 21 1014.1 1014.1 0.0

Other formats

Comma delimited format used in spreadsheet applications
http://www.bom.gov.au/fwo/IDW60801/IDW60801.94403.axf

JavaScript Object Notation format (JSON) in row-major order
http://www.bom.gov.au/fwo/IDW60801/IDW60801.94403.json

Data quality

Most of these data are generated automatically and are frequently updated. Quality checks on data are not normally performed. It is possible for incorrect values to appear. Refer to information at About Latest Weather Observations and please check the disclaimer before using these data.